KHUA/HUA METAR and TAF weather

Enter ICAO airport designator
Station Type Date Time Source
KHUA METAR 2022/11/29 20:56 UTC NOAA

KHUA 292056Z 15014G20KT 1/2SM OVC003 +RA 15/15 A2969 RMK SLPNO RVRNO $


Station Type Date Time Source
KHUA Decoded METAR 2022/11/29 20:56 UTC NOAA

Station name not available
Nov 29, 2022 - 03:56 PM EST / 2022.11.29 2056 UTC
Wind: from the SSE (150 degrees) at 16 MPH (14 KT) gusting to 23 MPH (20 KT):0
Visibility: 1/2 mile(s):0
Sky conditions: overcast
Weather: heavy rain
Temperature: 59 F (15 C)
Dew Point: 59 F (15 C)
Relative Humidity: 100%
Pressure (altimeter): 29.69 in. Hg (1005 hPa)
ob: KHUA 292056Z 15014G20KT 1/2SM OVC003 +RA 15/15 A2969 RMK SLPNO RVRNO
cycle: 21

Station Type Date Time Source
KHUA TAF 2022/11/29 16:44 UTC NOAA

TAF
AMD KHUA 291645Z 2916/3018 16009KT 9999 SCT012 BKN025 QNH3004INS
BECMG 2921/2922 15012G18KT 8000 -SHRA BKN025 510202 QNH2991INS
TEMPO 3002/3009 24020G25KT 4800 -TSRA OVC003CB
BECMG 3009/3010 VRB06KT 6000 +SHRA OVC003 510103 QNH2983INS
BECMG 3012/3013 28009KT 8000 -SHRA OVC010 510104 QNH2992INS
BECMG 3014/3015 31015G20KT 9000 -SHRA BKN020 QNH3007INS
BECMG 3017/3018 33015G20KT 9999 NSW SKC QNH3018INS TX17/3010Z TN07/3012Z

Example: see airport list